createdAt,value
2023-04-23T00:00:10.550Z,68.04
2023-04-23T00:01:10.504Z,67.60
2023-04-23T00:02:10.517Z,68.21
2023-04-23T00:03:10.756Z,68.24
2023-04-23T00:04:10.565Z,67.91
2023-04-23T00:05:10.498Z,68.11
2023-04-23T00:06:10.444Z,68.24
2023-04-23T00:07:10.422Z,68.85
2023-04-23T00:08:10.445Z,68.11
2023-04-23T00:09:10.385Z,67.91
2023-04-23T00:10:10.403Z,68.01
2023-04-23T00:11:10.395Z,68.72
2023-04-23T00:12:10.372Z,68.11
2023-04-23T00:13:10.376Z,68.11
2023-04-23T00:14:10.341Z,68.01
2023-04-23T00:15:10.368Z,68.41
2023-04-23T00:16:10.363Z,68.35
2023-04-23T00:17:10.304Z,68.35
2023-04-23T00:18:10.294Z,68.96
2023-04-23T00:19:10.372Z,69.60
2023-04-23T00:20:10.368Z,69.80
2023-04-23T00:21:10.265Z,69.26
2023-04-23T00:22:10.364Z,70.07
2023-04-23T00:23:10.250Z,69.26
2023-04-23T00:24:10.227Z,70.31
2023-04-23T00:25:10.242Z,69.60
2023-04-23T00:26:10.202Z,69.80
2023-04-23T00:27:10.250Z,70.51
2023-04-23T00:28:10.179Z,70.86
2023-04-23T00:29:10.173Z,71.36
2023-04-23T00:30:10.217Z,72.62
2023-04-23T00:31:10.154Z,72.11
2023-04-23T00:32:10.359Z,72.21
2023-04-23T00:33:10.134Z,72.41
2023-04-23T00:34:10.121Z,72.41
2023-04-23T00:35:10.100Z,72.62
2023-04-23T00:36:10.131Z,71.87
2023-04-23T00:37:10.091Z,71.97
2023-04-23T00:38:10.065Z,71.36
2023-04-23T00:39:10.067Z,71.77
2023-04-23T00:40:10.036Z,72.52
2023-04-23T00:41:10.084Z,71.87
2023-04-23T00:42:10.017Z,71.87
2023-04-23T00:43:10.009Z,71.77
2023-04-23T00:44:10.006Z,71.67
2023-04-23T00:45:09.993Z,71.97
2023-04-23T00:46:10.153Z,71.97
2023-04-23T00:47:09.974Z,72.21
2023-04-23T00:48:09.960Z,72.21
2023-04-23T00:49:09.950Z,72.72
2023-04-23T00:50:09.947Z,72.62
2023-04-23T00:51:09.971Z,73.16
2023-04-23T00:52:09.954Z,73.67
2023-04-23T00:53:09.907Z,74.52
2023-04-23T00:54:09.886Z,74.32
2023-04-23T00:55:09.872Z,74.90
2023-04-23T00:56:09.911Z,74.73
2023-04-23T00:57:09.861Z,75.03
2023-04-23T00:58:09.845Z,75.64
2023-04-23T00:59:09.827Z,74.93
2023-04-23T01:00:09.824Z,74.73
2023-04-23T01:01:09.879Z,75.13
2023-04-23T01:02:09.849Z,75.44
2023-04-23T01:03:09.865Z,75.78
2023-04-23T01:04:09.896Z,75.78
2023-04-23T01:05:09.763Z,76.59
2023-04-23T01:06:09.796Z,76.19
2023-04-23T01:07:09.749Z,76.19
2023-04-23T01:08:09.722Z,77.62
2023-04-23T01:09:09.703Z,77.62
2023-04-23T01:10:09.705Z,77.34
2023-04-23T01:11:09.749Z,76.80
2023-04-23T01:12:09.692Z,78.23
2023-04-23T01:13:09.679Z,78.88
2023-04-23T01:14:09.650Z,78.06
2023-04-23T01:15:09.650Z,79.43
2023-04-23T01:16:09.677Z,78.71
2023-04-23T01:17:09.658Z,78.75
2023-04-23T01:18:09.609Z,78.50
2023-04-23T01:19:09.640Z,79.12
2023-04-23T01:20:09.613Z,80.04
2023-04-23T01:21:09.618Z,80.58
2023-04-23T01:22:09.559Z,81.30
2023-04-23T01:23:09.559Z,80.93
2023-04-23T01:24:09.550Z,81.65
2023-04-23T01:25:09.552Z,82.40
2023-04-23T01:26:09.568Z,83.01
2023-04-23T01:27:09.526Z,82.95
2023-04-23T01:28:09.546Z,83.05
2023-04-23T01:29:09.500Z,83.36
2023-04-23T01:30:09.502Z,83.05
2023-04-23T01:31:09.567Z,83.87
2023-04-23T01:32:09.469Z,83.97
2023-04-23T01:33:09.482Z,84.28
2023-04-23T01:34:09.448Z,85.40
2023-04-23T01:35:09.445Z,83.87
2023-04-23T01:36:09.454Z,83.52
2023-04-23T01:37:09.399Z,83.42
2023-04-23T01:38:09.417Z,83.22
2023-04-23T01:39:09.385Z,83.11
2023-04-23T01:40:09.373Z,82.70
2023-04-23T01:41:09.406Z,83.11
2023-04-23T01:42:09.383Z,83.42
2023-04-23T01:43:09.319Z,83.22
2023-04-23T01:44:09.317Z,82.81
2023-04-23T01:45:09.319Z,83.73
2023-04-23T01:46:09.356Z,84.75
2023-04-23T01:47:09.288Z,84.44
2023-04-23T01:48:09.266Z,84.79
2023-04-23T01:49:09.275Z,84.99
2023-04-23T01:50:09.266Z,85.91
2023-04-23T01:51:09.297Z,84.38
2023-04-23T01:52:09.223Z,85.30
2023-04-23T01:53:09.233Z,84.79
2023-04-23T01:54:09.237Z,85.61
2023-04-23T01:55:09.205Z,85.10
2023-04-23T01:56:09.225Z,84.79
2023-04-23T01:57:09.184Z,85.71
2023-04-23T01:58:09.159Z,86.12
2023-04-23T01:59:09.167Z,85.55
2023-04-23T02:00:09.147Z,85.61
2023-04-23T02:01:09.249Z,86.02
2023-04-23T02:02:09.125Z,85.91
2023-04-23T02:03:09.327Z,85.85
2023-04-23T02:04:09.159Z,86.36
2023-04-23T02:05:09.149Z,87.22
2023-04-23T02:06:09.118Z,87.53
2023-04-23T02:07:09.044Z,87.84
2023-04-23T02:08:09.043Z,87.67
2023-04-23T02:09:09.044Z,88.80
2023-04-23T02:10:09.028Z,89.11
2023-04-23T02:11:09.060Z,89.42
2023-04-23T02:12:09.011Z,89.11
2023-04-23T02:13:09.022Z,89.87
2023-04-23T02:14:08.993Z,89.97
2023-04-23T02:15:08.972Z,88.94
2023-04-23T02:16:09.018Z,88.94
2023-04-23T02:17:08.955Z,89.45
2023-04-23T02:18:08.938Z,89.76
2023-04-23T02:19:08.943Z,90.69
2023-04-23T02:20:08.912Z,89.87
2023-04-23T02:21:08.950Z,89.97
2023-04-23T02:22:08.905Z,90.54
2023-04-23T02:23:08.902Z,90.64
2023-04-23T02:24:08.863Z,91.97
2023-04-23T02:25:08.891Z,91.26
2023-04-23T02:26:08.894Z,90.34
2023-04-23T02:27:08.871Z,91.16
2023-04-23T02:28:08.824Z,91.67
2023-04-23T02:29:08.832Z,91.36
2023-04-23T02:30:08.796Z,91.56
2023-04-23T02:31:08.854Z,91.36
2023-04-23T02:32:08.814Z,90.84
2023-04-23T02:33:08.764Z,91.42
2023-04-23T02:34:08.766Z,92.18
2023-04-23T02:35:08.760Z,91.26
2023-04-23T02:36:08.743Z,90.84
2023-04-23T02:37:08.752Z,90.75
2023-04-23T02:38:08.720Z,91.26
2023-04-23T02:39:08.713Z,91.16
2023-04-23T02:40:08.688Z,91.67
2023-04-23T02:41:08.686Z,91.16
2023-04-23T02:42:08.715Z,91.05
2023-04-23T02:43:08.672Z,90.64
2023-04-23T02:44:08.646Z,91.05
2023-04-23T02:45:08.640Z,90.84
2023-04-23T02:46:08.842Z,91.87
2023-04-23T02:47:08.636Z,90.58
2023-04-23T02:48:08.591Z,90.79
2023-04-23T02:49:08.593Z,90.89
2023-04-23T02:50:08.575Z,90.79
2023-04-23T02:51:08.576Z,91.20
2023-04-23T02:52:08.613Z,91.55
2023-04-23T02:53:08.568Z,91.71
2023-04-23T02:54:08.530Z,92.32
2023-04-23T02:55:08.531Z,92.57
2023-04-23T02:56:08.513Z,92.78
2023-04-23T02:57:08.538Z,93.08
2023-04-23T02:58:08.512Z,92.36
2023-04-23T02:59:08.470Z,92.27
2023-04-23T03:00:08.454Z,92.88
2023-04-23T03:01:08.508Z,92.53
2023-04-23T03:02:08.520Z,93.55
2023-04-23T03:03:09.977Z,93.25
2023-04-23T03:04:08.665Z,94.37
2023-04-23T03:05:08.396Z,94.73
2023-04-23T03:06:08.399Z,94.32
2023-04-23T03:07:08.408Z,93.19
2023-04-23T03:08:08.359Z,92.47
2023-04-23T03:09:08.360Z,92.68
2023-04-23T03:10:08.361Z,93.29
2023-04-23T03:11:08.327Z,93.70
2023-04-23T03:12:08.364Z,93.60
2023-04-23T03:13:08.318Z,93.39
2023-04-23T03:14:08.297Z,93.70
2023-04-23T03:15:08.306Z,92.88
2023-04-23T03:16:08.263Z,93.39
2023-04-23T03:17:08.324Z,92.88
2023-04-23T03:18:08.266Z,93.39
2023-04-23T03:19:08.248Z,93.29
2023-04-23T03:20:08.242Z,92.98
2023-04-23T03:21:08.223Z,93.15
2023-04-23T03:22:08.260Z,93.15
2023-04-23T03:23:08.214Z,92.83
2023-04-23T03:24:08.203Z,93.55
2023-04-23T03:25:08.178Z,94.17
2023-04-23T03:26:08.177Z,94.48
2023-04-23T03:27:08.192Z,93.55
2023-04-23T03:28:08.131Z,93.15
2023-04-23T03:29:08.130Z,93.35
2023-04-23T03:30:08.126Z,95.20
2023-04-23T03:31:08.180Z,95.14
2023-04-23T03:32:08.140Z,95.44
2023-04-23T03:33:08.073Z,95.65
2023-04-23T03:34:08.070Z,95.86
2023-04-23T03:35:08.064Z,95.34
2023-04-23T03:36:08.071Z,95.81
2023-04-23T03:37:08.096Z,95.20
2023-04-23T03:38:08.033Z,94.68
2023-04-23T03:39:08.031Z,94.58
2023-04-23T03:40:08.021Z,95.40
2023-04-23T03:41:07.987Z,95.09
2023-04-23T03:42:08.037Z,95.24
2023-04-23T03:43:07.999Z,96.63
2023-04-23T03:44:07.953Z,96.32
2023-04-23T03:45:07.938Z,95.50
2023-04-23T03:46:07.970Z,95.70
2023-04-23T03:47:07.934Z,95.70
2023-04-23T03:48:07.951Z,96.01
2023-04-23T03:49:07.898Z,95.29
2023-04-23T03:50:07.886Z,94.99
2023-04-23T03:51:07.876Z,95.50
2023-04-23T03:52:07.861Z,95.61
2023-04-23T03:53:07.927Z,95.46
2023-04-23T03:54:07.837Z,94.74
2023-04-23T03:55:07.836Z,93.82
2023-04-23T03:56:07.877Z,91.78
2023-04-23T03:57:07.812Z,91.69
2023-04-23T03:58:07.863Z,90.41
2023-04-23T03:59:07.789Z,91.74
2023-04-23T04:00:07.776Z,90.11
2023-04-23T04:01:07.788Z,90.06
2023-04-23T04:02:07.951Z,90.47
2023-04-23T04:03:07.946Z,90.27
2023-04-23T04:04:08.089Z,89.45
2023-04-23T04:05:07.977Z,89.20
2023-04-23T04:06:07.728Z,90.02
2023-04-23T04:07:07.758Z,88.70
2023-04-23T04:08:07.711Z,88.29
2023-04-23T04:09:07.698Z,88.45
2023-04-23T04:10:07.681Z,88.24
2023-04-23T04:11:07.651Z,87.73
2023-04-23T04:12:07.694Z,87.08
2023-04-23T04:13:07.648Z,86.67
2023-04-23T04:14:07.619Z,87.18
2023-04-23T04:15:07.629Z,87.70
2023-04-23T04:16:07.608Z,87.24
2023-04-23T04:17:07.584Z,87.35
2023-04-23T04:18:07.631Z,88.67
2023-04-23T04:19:07.580Z,87.55
2023-04-23T04:20:07.583Z,87.96
2023-04-23T04:21:07.592Z,86.83
2023-04-23T04:22:07.553Z,87.35
2023-04-23T04:23:07.588Z,86.63
2023-04-23T04:24:07.515Z,85.68
2023-04-23T04:25:07.496Z,84.61
2023-04-23T04:26:07.485Z,83.70
2023-04-23T04:27:07.468Z,84.88
2023-04-23T04:28:07.493Z,83.65
2023-04-23T04:29:07.464Z,83.35
2023-04-23T04:30:07.468Z,84.17
2023-04-23T04:31:07.452Z,84.88
2023-04-23T04:32:07.403Z,84.67
2023-04-23T04:33:07.425Z,84.00
2023-04-23T04:34:07.390Z,83.04
2023-04-23T04:35:07.380Z,81.72
2023-04-23T04:36:07.361Z,81.48
2023-04-23T04:37:07.362Z,84.23
2023-04-23T04:38:07.386Z,82.90
2023-04-23T04:39:07.333Z,83.01
2023-04-23T04:40:07.351Z,81.58
2023-04-23T04:41:07.325Z,79.91
2023-04-23T04:42:07.361Z,80.22
2023-04-23T04:43:07.331Z,79.02
2023-04-23T04:44:07.277Z,79.68
2023-04-23T04:45:07.268Z,79.27
2023-04-23T04:46:07.729Z,80.18
2023-04-23T04:47:07.304Z,79.88
2023-04-23T04:48:07.260Z,78.92
2023-04-23T04:49:07.217Z,79.02
2023-04-23T04:50:07.207Z,78.52
2023-04-23T04:51:07.206Z,79.43
2023-04-23T04:52:07.177Z,78.11
2023-04-23T04:53:07.204Z,78.58
2023-04-23T04:54:07.153Z,77.43
2023-04-23T04:55:07.180Z,77.67
2023-04-23T04:56:07.146Z,77.06
2023-04-23T04:57:07.125Z,77.49
2023-04-23T04:58:07.165Z,77.29
2023-04-23T04:59:07.111Z,77.63
2023-04-23T05:00:07.086Z,77.63
2023-04-23T05:01:07.136Z,76.82
2023-04-23T05:02:07.137Z,77.02
2023-04-23T05:03:07.185Z,75.93
2023-04-23T05:04:07.218Z,76.68
2023-04-23T05:05:07.039Z,77.97
2023-04-23T05:06:07.007Z,76.85
2023-04-23T05:07:07.018Z,77.25
2023-04-23T05:08:07.041Z,77.01
2023-04-23T05:09:06.999Z,78.94
2023-04-23T05:10:06.990Z,80.06
2023-04-23T05:11:06.965Z,77.52
2023-04-23T05:12:06.958Z,78.64
2023-04-23T05:13:06.989Z,75.70
2023-04-23T05:14:06.924Z,75.49
2023-04-23T05:15:06.918Z,74.74
2023-04-23T05:16:06.896Z,75.05
2023-04-23T05:17:06.973Z,74.51
2023-04-23T05:18:06.926Z,74.77
2023-04-23T05:19:06.866Z,73.76
2023-04-23T05:20:06.873Z,73.63
2023-04-23T05:21:06.857Z,72.21
2023-04-23T05:22:06.858Z,73.25
2023-04-23T05:23:06.864Z,72.92
2023-04-23T05:24:06.835Z,73.80
2023-04-23T05:25:06.820Z,72.24
2023-04-23T05:26:06.806Z,71.03
2023-04-23T05:27:06.787Z,70.73
2023-04-23T05:28:06.807Z,70.05
2023-04-23T05:29:06.788Z,68.91
2023-04-23T05:30:06.742Z,71.00
2023-04-23T05:31:06.756Z,67.97
2023-04-23T05:32:06.754Z,68.13
2023-04-23T05:33:06.836Z,66.39
2023-04-23T05:34:06.728Z,65.92
2023-04-23T05:35:06.710Z,64.21
2023-04-23T05:36:06.693Z,64.89
2023-04-23T05:37:06.674Z,63.67
2023-04-23T05:38:06.703Z,63.87
2023-04-23T05:39:06.658Z,64.32
2023-04-23T05:40:06.639Z,64.92
2023-04-23T05:41:06.619Z,63.82
2023-04-23T05:42:06.627Z,63.42
2023-04-23T05:43:06.642Z,63.85
2023-04-23T05:44:06.597Z,63.98
2023-04-23T05:45:08.547Z,65.42
2023-04-23T05:46:06.620Z,64.75
2023-04-23T05:47:06.556Z,66.49
2023-04-23T05:48:06.641Z,66.82
2023-04-23T05:49:06.546Z,66.82
2023-04-23T05:50:06.514Z,68.44
2023-04-23T05:51:06.495Z,68.51
2023-04-23T05:52:06.504Z,67.23
2023-04-23T05:53:06.496Z,66.96
2023-04-23T05:54:06.476Z,68.57
2023-04-23T05:55:06.434Z,69.18
2023-04-23T05:56:06.487Z,70.66
2023-04-23T05:57:06.452Z,68.87
2023-04-23T05:58:06.472Z,69.89
2023-04-23T05:59:06.436Z,70.36
2023-04-23T06:00:06.410Z,68.57
2023-04-23T06:01:06.381Z,69.31
2023-04-23T06:02:06.543Z,68.51
2023-04-23T06:03:06.550Z,71.13
2023-04-23T06:04:06.630Z,73.46
2023-04-23T06:05:06.449Z,71.94
2023-04-23T06:06:06.359Z,100.00
2023-04-23T06:07:06.356Z,70.69
2023-04-23T06:08:06.360Z,70.69
2023-04-23T06:09:06.298Z,69.35
2023-04-23T06:10:06.280Z,68.91
2023-04-23T06:11:06.270Z,70.59
2023-04-23T06:12:06.279Z,66.33
2023-04-23T06:13:06.299Z,66.30
2023-04-23T06:14:06.241Z,66.60
2023-04-23T06:15:06.244Z,66.33
2023-04-23T06:16:06.244Z,67.67
2023-04-23T06:17:06.216Z,67.30
2023-04-23T06:18:06.328Z,64.65
2023-04-23T06:19:06.208Z,65.53
2023-04-23T06:20:06.184Z,64.35
2023-04-23T06:21:06.162Z,64.51
2023-04-23T06:22:06.173Z,65.25
2023-04-23T06:23:06.130Z,66.99
2023-04-23T06:24:06.162Z,66.89
2023-04-23T06:25:06.114Z,67.02
2023-04-23T06:26:06.102Z,67.83
2023-04-23T06:27:06.099Z,67.86
2023-04-23T06:28:06.082Z,68.47
2023-04-23T06:29:06.107Z,67.86
2023-04-23T06:30:06.062Z,68.24
2023-04-23T06:31:06.089Z,66.86
2023-04-23T06:32:06.036Z,66.16
2023-04-23T06:33:06.044Z,66.05
2023-04-23T06:34:06.091Z,65.89
2023-04-23T06:35:06.270Z,65.36
2023-04-23T06:36:06.013Z,63.89
2023-04-23T06:37:05.978Z,63.85
2023-04-23T06:38:05.967Z,62.12
2023-04-23T06:39:06.002Z,62.19
2023-04-23T06:40:05.948Z,60.75
2023-04-23T06:41:05.968Z,59.75
2023-04-23T06:42:05.941Z,61.83
2023-04-23T06:43:05.919Z,59.79
2023-04-23T06:44:05.937Z,60.16
2023-04-23T06:45:06.467Z,59.20
2023-04-23T06:46:05.868Z,57.96
2023-04-23T06:47:05.950Z,59.36
2023-04-23T06:48:05.890Z,59.29
2023-04-23T06:49:05.898Z,59.65
2023-04-23T06:50:05.831Z,60.58
2023-04-23T06:51:05.825Z,61.08
2023-04-23T06:52:05.806Z,59.34
2023-04-23T06:53:05.798Z,60.75
2023-04-23T06:54:05.842Z,62.86
2023-04-23T06:55:05.787Z,61.61
2023-04-23T06:56:05.777Z,62.22
2023-04-23T06:57:05.745Z,61.91
2023-04-23T06:58:05.739Z,61.15
2023-04-23T06:59:05.782Z,100.00
2023-04-23T07:00:05.745Z,58.76
2023-04-23T07:01:05.772Z,59.56
2023-04-23T07:02:05.746Z,59.09
2023-04-23T07:03:05.833Z,60.93
2023-04-23T07:04:05.713Z,60.65
2023-04-23T07:05:05.676Z,60.39
2023-04-23T07:06:05.664Z,58.63
2023-04-23T07:07:05.651Z,58.86
2023-04-23T07:08:05.667Z,59.96
2023-04-23T07:09:05.671Z,59.89
2023-04-23T07:10:05.632Z,61.19
2023-04-23T07:11:05.779Z,59.69
2023-04-23T07:12:05.615Z,59.99
2023-04-23T07:13:05.603Z,60.22
2023-04-23T07:14:05.579Z,59.49
2023-04-23T07:15:05.673Z,60.47
2023-04-23T07:16:05.549Z,61.94
2023-04-23T07:17:05.652Z,61.71
2023-04-23T07:18:05.535Z,60.61
2023-04-23T07:19:05.558Z,59.56
2023-04-23T07:20:05.557Z,59.23
2023-04-23T07:21:05.534Z,61.04
2023-04-23T07:22:05.494Z,58.99
2023-04-23T07:23:05.510Z,61.90
2023-04-23T07:24:05.472Z,61.33
2023-04-23T07:25:05.522Z,62.53
2023-04-23T07:26:05.469Z,61.22
2023-04-23T07:27:05.444Z,61.52
2023-04-23T07:28:05.451Z,61.13
2023-04-23T07:29:05.416Z,60.25
2023-04-23T07:30:05.458Z,62.29
2023-04-23T07:31:05.424Z,60.69
2023-04-23T07:32:05.410Z,60.06
2023-04-23T07:33:05.415Z,59.31
2023-04-23T07:34:05.355Z,57.70
2023-04-23T07:35:05.389Z,58.40
2023-04-23T07:36:05.388Z,57.63
2023-04-23T07:37:05.365Z,56.87
2023-04-23T07:38:05.349Z,57.72
2023-04-23T07:39:05.296Z,57.55
2023-04-23T07:40:05.353Z,58.07
2023-04-23T07:41:05.274Z,56.07
2023-04-23T07:42:05.280Z,56.27
2023-04-23T07:43:05.268Z,56.55
2023-04-23T07:44:05.271Z,56.52
2023-04-23T07:45:06.052Z,54.90
2023-04-23T07:46:05.262Z,55.36
2023-04-23T07:47:05.231Z,53.69
2023-04-23T07:48:05.234Z,56.39
2023-04-23T07:49:05.204Z,54.37
2023-04-23T07:50:05.225Z,54.71
2023-04-23T07:51:05.183Z,53.17
2023-04-23T07:52:05.172Z,54.14
2023-04-23T07:53:05.174Z,54.72
2023-04-23T07:54:05.138Z,55.47
2023-04-23T07:55:05.207Z,56.48
2023-04-23T07:56:05.121Z,57.02
2023-04-23T07:57:05.148Z,55.57
2023-04-23T07:58:05.107Z,55.55
2023-04-23T07:59:05.107Z,55.22
2023-04-23T08:00:05.139Z,55.57
2023-04-23T08:01:05.104Z,56.89
2023-04-23T08:02:05.113Z,56.65
2023-04-23T08:03:05.153Z,58.35
2023-04-23T08:04:05.269Z,55.67
2023-04-23T08:05:05.126Z,59.13
2023-04-23T08:06:05.023Z,58.73
2023-04-23T08:07:05.001Z,58.76
2023-04-23T08:08:05.017Z,61.27
2023-04-23T08:09:04.983Z,60.53
2023-04-23T08:10:05.007Z,60.68
2023-04-23T08:11:04.996Z,60.55
2023-04-23T08:12:04.987Z,59.55
2023-04-23T08:13:04.922Z,56.72
2023-04-23T08:14:04.903Z,56.85
2023-04-23T08:15:04.951Z,58.05
2023-04-23T08:16:04.909Z,59.38
2023-04-23T08:17:04.902Z,58.87
2023-04-23T08:18:04.906Z,59.91
2023-04-23T08:19:06.223Z,60.03
2023-04-23T08:20:04.886Z,60.33
2023-04-23T08:21:04.822Z,64.34
2023-04-23T08:22:04.847Z,59.44
2023-04-23T08:23:04.818Z,63.37
2023-04-23T08:24:04.833Z,60.66
2023-04-23T08:25:04.861Z,60.16
2023-04-23T08:26:04.799Z,62.57
2023-04-23T08:27:04.809Z,61.90
2023-04-23T08:28:05.001Z,63.03
2023-04-23T08:29:04.772Z,62.06
2023-04-23T08:30:04.798Z,63.56
2023-04-23T08:31:15.130Z,63.79
2023-04-23T08:32:05.795Z,63.59
2023-04-23T08:33:04.755Z,64.53
2023-04-23T08:34:04.704Z,65.56
2023-04-23T08:35:04.749Z,65.06
2023-04-23T08:36:04.691Z,64.96
2023-04-23T08:37:04.873Z,67.24
2023-04-23T08:38:04.668Z,65.47
2023-04-23T08:39:04.644Z,66.37
2023-04-23T08:40:04.653Z,65.26
2023-04-23T08:41:04.604Z,65.80
2023-04-23T08:42:04.583Z,66.00
2023-04-23T08:43:04.611Z,67.58
2023-04-23T08:44:04.583Z,66.80
2023-04-23T08:45:04.649Z,67.41
2023-04-23T08:46:04.571Z,66.71
2023-04-23T08:47:04.630Z,66.83
2023-04-23T08:48:04.558Z,69.12
2023-04-23T08:49:04.530Z,69.12
2023-04-23T08:50:04.569Z,68.35
2023-04-23T08:51:04.504Z,68.15
2023-04-23T08:52:04.502Z,68.62
2023-04-23T08:53:04.496Z,67.34
2023-04-23T08:54:04.481Z,70.19
2023-04-23T08:55:04.520Z,69.21
2023-04-23T08:56:04.465Z,71.06
2023-04-23T08:57:04.441Z,71.97
2023-04-23T08:58:04.433Z,71.77
2023-04-23T08:59:04.428Z,71.67
2023-04-23T09:00:04.475Z,72.51
2023-04-23T09:01:04.449Z,73.52
2023-04-23T09:02:04.470Z,72.20
2023-04-23T09:03:04.597Z,73.35
2023-04-23T09:04:04.385Z,73.96
2023-04-23T09:05:04.678Z,73.96
2023-04-23T09:06:04.348Z,73.75
2023-04-23T09:07:04.396Z,73.32
2023-04-23T09:08:04.333Z,74.43
2023-04-23T09:09:04.318Z,73.68
2023-04-23T09:10:04.414Z,73.48
2023-04-23T09:11:04.316Z,73.25
2023-04-23T09:12:04.263Z,72.85
2023-04-23T09:13:04.276Z,74.32
2023-04-23T09:14:04.246Z,73.72
2023-04-23T09:15:04.361Z,71.16
2023-04-23T09:16:04.214Z,71.26
2023-04-23T09:17:04.232Z,72.67
2023-04-23T09:18:04.243Z,70.53
2023-04-23T09:19:04.223Z,70.83
2023-04-23T09:20:04.240Z,70.70
2023-04-23T09:21:04.179Z,70.32
2023-04-23T09:22:04.165Z,68.82
2023-04-23T09:23:04.158Z,67.65
2023-04-23T09:24:04.144Z,67.32
2023-04-23T09:25:04.216Z,66.95
2023-04-23T09:26:04.119Z,65.31
2023-04-23T09:27:04.135Z,64.48
2023-04-23T09:28:04.082Z,62.68
2023-04-23T09:29:04.080Z,62.45
2023-04-23T09:30:04.118Z,64.06
2023-04-23T09:31:04.079Z,64.25
2023-04-23T09:32:04.085Z,65.25
2023-04-23T09:33:04.100Z,63.79
2023-04-23T09:34:04.010Z,62.96
2023-04-23T09:35:04.072Z,62.77
2023-04-23T09:36:04.043Z,59.70
2023-04-23T09:37:04.004Z,60.21
2023-04-23T09:38:03.957Z,60.38
2023-04-23T09:39:03.949Z,59.25
2023-04-23T09:40:03.959Z,58.20
2023-04-23T09:41:03.987Z,59.08
2023-04-23T09:42:03.992Z,57.09
2023-04-23T09:43:03.931Z,55.82
2023-04-23T09:44:03.936Z,54.46
2023-04-23T09:45:03.951Z,54.72
2023-04-23T09:46:03.979Z,53.70
2023-04-23T09:47:03.905Z,52.99
2023-04-23T09:48:04.012Z,55.26
2023-04-23T09:49:03.877Z,56.81
2023-04-23T09:50:03.845Z,56.87
2023-04-23T09:51:03.885Z,56.08
2023-04-23T09:52:03.820Z,57.43
2023-04-23T09:53:03.837Z,57.15
2023-04-23T09:54:03.824Z,59.32
2023-04-23T09:55:03.921Z,59.12
2023-04-23T09:56:03.828Z,57.90
2023-04-23T09:57:03.757Z,57.37
2023-04-23T09:58:03.781Z,58.29
2023-04-23T09:59:03.751Z,58.84
2023-04-23T10:00:17.298Z,60.93
2023-04-23T10:01:04.796Z,62.53
2023-04-23T10:02:03.716Z,61.73
2023-04-23T10:03:03.892Z,60.69
2023-04-23T10:04:03.828Z,61.16
2023-04-23T10:05:14.310Z,60.89
2023-04-23T10:06:04.833Z,61.42
2023-04-23T10:07:17.936Z,62.72
2023-04-23T10:08:04.641Z,62.92
2023-04-23T10:09:03.616Z,60.99
2023-04-23T10:10:03.610Z,62.37
2023-04-23T10:11:17.676Z,60.63
2023-04-23T10:12:04.609Z,61.24
2023-04-23T10:13:03.597Z,61.54
2023-04-23T10:14:03.596Z,59.47
2023-04-23T10:15:03.619Z,61.88
2023-04-23T10:16:14.448Z,66.24
2023-04-23T10:17:04.590Z,67.61
2023-04-23T10:18:03.562Z,68.29
2023-04-23T10:19:03.541Z,66.18
2023-04-23T10:20:03.519Z,64.95
2023-04-23T10:21:03.548Z,66.95
2023-04-23T10:22:18.136Z,68.42
2023-04-23T10:23:04.484Z,65.08
2023-04-23T10:24:03.493Z,66.88
2023-04-23T10:25:03.476Z,66.82
2023-04-23T10:26:03.483Z,66.88
2023-04-23T10:27:03.440Z,68.05
2023-04-23T10:28:03.434Z,70.03
2023-04-23T10:29:03.426Z,72.37
2023-04-23T10:30:05.482Z,71.06
2023-04-23T10:31:03.442Z,70.56
2023-04-23T10:32:03.417Z,72.34
2023-04-23T10:33:03.437Z,71.40
2023-04-23T10:34:03.445Z,69.89
2023-04-23T10:35:03.380Z,69.69
2023-04-23T10:36:03.315Z,69.79
2023-04-23T10:37:03.370Z,69.96
2023-04-23T10:38:03.319Z,69.22
2023-04-23T10:39:03.302Z,69.62
2023-04-23T10:40:03.312Z,68.35
2023-04-23T10:41:03.278Z,68.25
2023-04-23T10:42:03.307Z,66.88
2023-04-23T10:43:03.279Z,66.85
2023-04-23T10:44:03.259Z,66.85
2023-04-23T10:45:13.082Z,66.92
2023-04-23T10:46:04.293Z,66.95
2023-04-23T10:47:03.257Z,64.88
2023-04-23T10:48:03.252Z,65.17
2023-04-23T10:49:03.209Z,67.28
2023-04-23T10:51:24.857Z,68.59
2023-04-23T10:53:03.150Z,70.29
2023-04-23T10:54:03.266Z,70.59
2023-04-23T10:55:03.222Z,70.29
2023-04-23T10:56:03.099Z,70.29
2023-04-23T10:57:03.151Z,71.09
2023-04-23T10:58:03.439Z,70.79
2023-04-23T10:59:03.086Z,71.06
2023-04-23T11:00:03.064Z,70.36
2023-04-23T11:01:03.076Z,69.96
2023-04-23T11:02:03.135Z,69.76
2023-04-23T11:03:03.118Z,68.75
2023-04-23T11:04:03.097Z,68.88
2023-04-23T11:05:03.139Z,71.00
2023-04-23T11:06:03.001Z,70.29
2023-04-23T11:07:03.093Z,70.53
2023-04-23T11:08:11.040Z,72.07
2023-04-23T11:09:03.960Z,72.27
2023-04-23T11:10:02.974Z,72.51
2023-04-23T11:11:02.940Z,73.01
2023-04-23T11:12:02.976Z,73.65
2023-04-23T11:13:02.915Z,74.26
2023-04-23T11:14:02.932Z,75.20
2023-04-23T11:15:02.899Z,75.40
2023-04-23T11:16:02.909Z,76.51
2023-04-23T11:17:02.903Z,78.32
2023-04-23T11:18:02.917Z,79.97
2023-04-23T11:19:02.872Z,80.92
2023-04-23T11:20:02.903Z,82.07
2023-04-23T11:21:02.837Z,83.92
2023-04-23T11:22:02.943Z,84.67
2023-04-23T11:23:02.847Z,85.28
2023-04-23T11:24:02.802Z,86.29
2023-04-23T11:25:02.784Z,85.58
2023-04-23T11:26:02.785Z,86.49
2023-04-23T11:27:02.874Z,85.17
2023-04-23T11:28:02.794Z,85.03
2023-04-23T11:29:02.740Z,84.43
2023-04-23T11:30:02.803Z,85.30
2023-04-23T11:31:02.721Z,83.74
2023-04-23T11:32:03.941Z,82.53
2023-04-23T11:33:02.948Z,84.91
2023-04-23T11:34:02.696Z,84.17
2023-04-23T11:35:02.696Z,83.22
2023-04-23T11:36:02.665Z,82.21
2023-04-23T11:37:02.660Z,80.50
2023-04-23T11:38:02.703Z,79.69
2023-04-23T11:39:02.642Z,80.00
2023-04-23T11:40:02.643Z,80.50
2023-04-23T11:41:02.600Z,79.80
2023-04-23T11:42:02.612Z,78.28
2023-04-23T11:43:02.643Z,77.42
2023-04-23T11:44:02.584Z,79.43
2023-04-23T11:45:02.557Z,80.04
2023-04-23T11:46:02.637Z,78.99
2023-04-23T11:47:02.639Z,78.35
2023-04-23T11:48:02.640Z,77.40
2023-04-23T11:49:02.533Z,75.56
2023-04-23T11:50:02.555Z,76.67
2023-04-23T11:51:02.540Z,75.62
2023-04-23T11:52:02.503Z,75.35
2023-04-23T11:53:02.500Z,75.66
2023-04-23T11:54:02.459Z,75.82
2023-04-23T11:55:02.468Z,77.33
2023-04-23T11:56:02.434Z,73.21
2023-04-23T11:57:02.425Z,73.68
2023-04-23T11:58:02.468Z,71.97
2023-04-23T11:59:02.397Z,73.47
2023-04-23T12:00:02.398Z,72.71
2023-04-23T12:01:02.368Z,72.54
2023-04-23T12:02:02.389Z,75.66
2023-04-23T12:03:02.659Z,73.14
2023-04-23T12:04:02.517Z,75.72
2023-04-23T12:05:02.358Z,72.74
2023-04-23T12:06:02.330Z,74.25
2023-04-23T12:07:08.003Z,74.72
2023-04-23T12:08:03.365Z,72.71
2023-04-23T12:09:02.275Z,71.87
2023-04-23T12:10:02.255Z,72.91
2023-04-23T12:11:02.268Z,72.64
2023-04-23T12:12:02.245Z,72.88
2023-04-23T12:13:02.276Z,73.58
2023-04-23T12:14:02.226Z,74.49
2023-04-23T12:15:02.226Z,73.95
2023-04-23T12:16:02.292Z,74.99
2023-04-23T12:17:02.195Z,73.28
2023-04-23T12:18:02.266Z,75.29
2023-04-23T12:19:02.168Z,73.88
2023-04-23T12:20:02.188Z,74.35
2023-04-23T12:21:02.158Z,74.49
2023-04-23T12:22:02.148Z,75.90
2023-04-23T12:23:02.224Z,76.95
2023-04-23T12:24:02.114Z,78.36
2023-04-23T12:25:02.136Z,77.42
2023-04-23T12:26:02.110Z,75.84
2023-04-23T12:27:02.125Z,77.19
2023-04-23T12:28:02.107Z,78.53
2023-04-23T12:29:02.050Z,78.30
2023-04-23T12:30:03.469Z,78.53
2023-04-23T12:31:02.055Z,77.76
2023-04-23T12:32:02.067Z,78.88
2023-04-23T12:33:02.124Z,79.44
2023-04-23T12:34:02.020Z,79.88
2023-04-23T12:35:01.987Z,79.28
2023-04-23T12:36:02.005Z,79.52
2023-04-23T12:37:01.984Z,80.46
2023-04-23T12:38:01.990Z,81.01
2023-04-23T12:39:01.977Z,82.08
2023-04-23T12:40:01.955Z,81.98
2023-04-23T12:41:02.028Z,82.53
2023-04-23T12:42:01.910Z,82.79
2023-04-23T12:43:01.978Z,81.68
2023-04-23T12:44:01.933Z,81.01
2023-04-23T12:45:01.924Z,81.92
2023-04-23T12:46:01.876Z,83.09
2023-04-23T12:47:01.892Z,81.98
2023-04-23T12:48:01.908Z,81.74
2023-04-23T12:49:01.895Z,80.73
2023-04-23T12:50:01.847Z,79.17
2023-04-23T12:51:01.823Z,79.44
2023-04-23T12:52:01.834Z,77.93
2023-04-23T12:53:01.805Z,78.84
2023-04-23T12:54:01.828Z,77.49